1S6 weather

Priest River Municipal Airport
Priest River, Idaho, United States

Public forecast

Using degrees Fahrenheit for public forecast. Weather courtesy of forecast.io.

Closest aviation weather report (METAR) to Priest River Municipal Airport

Closest report is Sandpoint Airport, 15.4 nm (28.6 km) ENE. Retrieved 2020/01/17 15:35 UTC (0 seconds ago):

KSZT 171535Z AUTO 22008KT 10SM OVC015 M02/M05 A3002 RMK AO2

Closest aviation forecast (TAF) to Priest River Municipal Airport

Closest forecast is Coeur D'Alene - Pappy Boyington Field, 25.2 nm (46.7 km) S. Retrieved 2020/01/17 12:42 UTC (3 hours ago):

TAF KCOE 171140Z 1712/1812 24010KT P6SM OVC010 FM171800 23007KT P6SM OVC015 FM180000 VRB04KT P6SM BKN015 FM180600 07005KT P6SM OVC007 FM180900 05005KT 4SM BR OVC004